Pagrindinis puslapis
METAR-TAF:

METAR-TAF

Oro uostai :

Guilin, Kinija

platuma: 25-20N, ilguma: 110-18E, Aukštis: 166 m

Dabartinis oras

Ataskaita buvo paskelbta 58 minutes, ne 11:00 UTC
Vėjas 6 kt iš Šiaurės/Šiaurės Rytų
Temperatūra 20°C
Drėgmė 88%
Slėgis 1020 hPa
Matomumas: 7000 m
Mažai debesys ne aukštis 4000 ft
Apsiniaukę ne aukštis 6600 ft
lietus

METAR: ZGKL 161100Z 03003MPS 7000 -RA FEW040 OVC066 20/18 Q1020 NOSIG

Laikas: 19:58 (11:58 UTC)

Prognozė

Ataskaita buvo paskelbta 2 valandos ir 48 minutes, ne 09:10 UTC
Prognozė galioja nuo 16 metu 12 UTC su 17 metu 12 UTC
Vėjas 8 kt iš Šiaurės/Šiaurės Rytų
Matomumas: 6000 m
Mažai debesys ne aukštis 4000 ft
Apsiniaukę ne aukštis 6000 ft
Tapsmas
nuo 16 metu 16 UTC su 16 metu 17 UTC
Matomumas: 2800 m
rūkana
Tapsmas
nuo 17 metu 02 UTC su 17 metu 03 UTC
Matomumas: 6000 m
Laikinai
nuo 16 metu 12 UTC su 16 metu 15 UTC
Matomumas: 2900 m
lietus

TAF: ZGKL 160910Z 1612/1712 03004MPS 6000 FEW040 OVC060 TX24/1707Z TN18/1622Z BECMG 1616/1617 2800 BR BECMG 1702/1703 6000 TEMPO 1612/1615 2900 -RA

Orai ataskaitas ir orų prognozės (METAR, TAF).

turimą stotys yra geltonos ir raudonos taškus žemėlapyje.

Perkelti pele per norėdami pamatyti stoties vardą.

Tada spustelėkite, norėdami matyti oro stebėjimo ir prognozės.

Norėdami pakeisti žemėlapį: spustelėkite ant žalios mygtukų su juodo kryžiaus žemyn,; žalią mygtuką su brūkšneliu, jei norite nutolinti; arba žalių rodyklių gretimoms žemėlapius.


METAR-TAF: